sensor_id;sensor_type;location;lat;lon;timestamp;P1;durP1;ratioP1;P2;durP2;ratioP2
1721;SDS011;858;53.190;8.596;2022-07-29T00:01:14;6.20;;;2.20;;
1721;SDS011;858;53.190;8.596;2022-07-29T00:03:40;4.87;;;2.20;;
1721;SDS011;858;53.190;8.596;2022-07-29T00:06:07;6.57;;;2.42;;
1721;SDS011;858;53.190;8.596;2022-07-29T00:08:33;2.88;;;2.20;;
1721;SDS011;858;53.190;8.596;2022-07-29T00:11:00;2.88;;;2.30;;
1721;SDS011;858;53.190;8.596;2022-07-29T00:13:26;4.00;;;2.50;;
1721;SDS011;858;53.190;8.596;2022-07-29T00:15:53;4.30;;;2.17;;
1721;SDS011;858;53.190;8.596;2022-07-29T00:18:21;4.70;;;2.50;;
1721;SDS011;858;53.190;8.596;2022-07-29T00:20:47;4.18;;;2.40;;
1721;SDS011;858;53.190;8.596;2022-07-29T00:23:14;4.38;;;2.00;;
1721;SDS011;858;53.190;8.596;2022-07-29T00:25:40;4.40;;;2.05;;
1721;SDS011;858;53.190;8.596;2022-07-29T00:28:07;5.25;;;2.75;;
1721;SDS011;858;53.190;8.596;2022-07-29T00:30:34;2.40;;;2.00;;
1721;SDS011;858;53.190;8.596;2022-07-29T00:33:00;4.55;;;2.35;;
1721;SDS011;858;53.190;8.596;2022-07-29T00:35:29;3.35;;;2.10;;
1721;SDS011;858;53.190;8.596;2022-07-29T00:38:09;4.07;;;2.10;;
1721;SDS011;858;53.190;8.596;2022-07-29T00:40:36;6.20;;;2.50;;
1721;SDS011;858;53.190;8.596;2022-07-29T00:43:02;3.50;;;2.17;;
1721;SDS011;858;53.190;8.596;2022-07-29T00:45:29;7.78;;;2.30;;
1721;SDS011;858;53.190;8.596;2022-07-29T00:47:55;5.30;;;2.30;;
1721;SDS011;858;53.190;8.596;2022-07-29T00:50:22;2.60;;;2.40;;
1721;SDS011;858;53.190;8.596;2022-07-29T00:52:50;3.90;;;2.10;;
1721;SDS011;858;53.190;8.596;2022-07-29T00:55:17;2.40;;;2.20;;
1721;SDS011;858;53.190;8.596;2022-07-29T00:57:43;3.72;;;2.20;;
1721;SDS011;858;53.190;8.596;2022-07-29T01:00:14;4.93;;;2.37;;
1721;SDS011;858;53.190;8.596;2022-07-29T01:02:40;5.00;;;2.10;;
1721;SDS011;858;53.190;8.596;2022-07-29T01:05:07;4.80;;;2.20;;
1721;SDS011;858;53.190;8.596;2022-07-29T01:07:33;4.05;;;2.28;;
1721;SDS011;858;53.190;8.596;2022-07-29T01:10:02;3.30;;;2.13;;
1721;SDS011;858;53.190;8.596;2022-07-29T01:12:29;3.28;;;1.98;;
1721;SDS011;858;53.190;8.596;2022-07-29T01:14:57;3.40;;;1.95;;
1721;SDS011;858;53.190;8.596;2022-07-29T01:17:26;6.03;;;2.10;;
1721;SDS011;858;53.190;8.596;2022-07-29T01:19:55;5.50;;;1.90;;
1721;SDS011;858;53.190;8.596;2022-07-29T01:22:25;5.05;;;1.95;;
1721;SDS011;858;53.190;8.596;2022-07-29T01:27:44;4.22;;;2.20;;
1721;SDS011;858;53.190;8.596;2022-07-29T01:30:14;3.73;;;2.30;;
1721;SDS011;858;53.190;8.596;2022-07-29T01:32:41;3.70;;;2.17;;
1721;SDS011;858;53.190;8.596;2022-07-29T01:35:16;3.17;;;2.20;;
1721;SDS011;858;53.190;8.596;2022-07-29T01:37:46;3.65;;;2.10;;
1721;SDS011;858;53.190;8.596;2022-07-29T01:40:17;4.20;;;2.30;;
1721;SDS011;858;53.190;8.596;2022-07-29T01:42:48;5.50;;;2.30;;
1721;SDS011;858;53.190;8.596;2022-07-29T01:45:18;4.00;;;2.20;;
1721;SDS011;858;53.190;8.596;2022-07-29T01:47:56;3.22;;;2.38;;
1721;SDS011;858;53.190;8.596;2022-07-29T01:50:26;3.42;;;2.10;;
1721;SDS011;858;53.190;8.596;2022-07-29T01:52:56;4.47;;;2.17;;
1721;SDS011;858;53.190;8.596;2022-07-29T01:55:25;3.60;;;2.50;;
1721;SDS011;858;53.190;8.596;2022-07-29T01:57:53;3.15;;;1.90;;
1721;SDS011;858;53.190;8.596;2022-07-29T02:00:21;5.78;;;2.30;;
1721;SDS011;858;53.190;8.596;2022-07-29T02:02:48;5.47;;;2.33;;
1721;SDS011;858;53.190;8.596;2022-07-29T02:05:16;4.05;;;2.40;;
1721;SDS011;858;53.190;8.596;2022-07-29T02:07:44;3.90;;;2.00;;
1721;SDS011;858;53.190;8.596;2022-07-29T02:10:12;5.45;;;2.20;;
1721;SDS011;858;53.190;8.596;2022-07-29T02:12:39;4.85;;;2.00;;
1721;SDS011;858;53.190;8.596;2022-07-29T02:15:07;2.97;;;1.90;;
1721;SDS011;858;53.190;8.596;2022-07-29T02:17:39;3.90;;;2.50;;
1721;SDS011;858;53.190;8.596;2022-07-29T02:20:07;4.93;;;2.30;;
1721;SDS011;858;53.190;8.596;2022-07-29T02:22:35;5.28;;;2.83;;
1721;SDS011;858;53.190;8.596;2022-07-29T02:25:04;4.97;;;2.30;;
1721;SDS011;858;53.190;8.596;2022-07-29T02:27:33;5.22;;;2.50;;
1721;SDS011;858;53.190;8.596;2022-07-29T02:30:00;3.63;;;2.60;;
1721;SDS011;858;53.190;8.596;2022-07-29T02:32:28;4.38;;;1.90;;
1721;SDS011;858;53.190;8.596;2022-07-29T02:34:56;3.30;;;2.20;;
1721;SDS011;858;53.190;8.596;2022-07-29T02:37:24;3.58;;;2.40;;
1721;SDS011;858;53.190;8.596;2022-07-29T02:39:52;6.03;;;2.30;;
1721;SDS011;858;53.190;8.596;2022-07-29T02:42:19;4.03;;;2.40;;
1721;SDS011;858;53.190;8.596;2022-07-29T02:44:47;4.22;;;2.15;;
1721;SDS011;858;53.190;8.596;2022-07-29T02:47:15;3.00;;;2.33;;
1721;SDS011;858;53.190;8.596;2022-07-29T02:49:42;4.15;;;2.13;;
1721;SDS011;858;53.190;8.596;2022-07-29T02:52:17;5.22;;;2.30;;
1721;SDS011;858;53.190;8.596;2022-07-29T02:54:45;4.28;;;2.30;;
1721;SDS011;858;53.190;8.596;2022-07-29T02:57:14;3.92;;;2.30;;
1721;SDS011;858;53.190;8.596;2022-07-29T02:59:44;4.30;;;2.10;;
1721;SDS011;858;53.190;8.596;2022-07-29T03:02:12;6.47;;;2.40;;
1721;SDS011;858;53.190;8.596;2022-07-29T03:04:39;2.97;;;2.17;;
1721;SDS011;858;53.190;8.596;2022-07-29T03:07:07;4.35;;;2.20;;
1721;SDS011;858;53.190;8.596;2022-07-29T03:09:36;3.17;;;2.35;;
1721;SDS011;858;53.190;8.596;2022-07-29T03:12:03;4.60;;;2.40;;
1721;SDS011;858;53.190;8.596;2022-07-29T03:14:30;4.15;;;2.30;;
1721;SDS011;858;53.190;8.596;2022-07-29T03:16:57;5.10;;;2.10;;
1721;SDS011;858;53.190;8.596;2022-07-29T03:19:23;5.05;;;2.28;;
1721;SDS011;858;53.190;8.596;2022-07-29T03:21:49;5.88;;;2.45;;
1721;SDS011;858;53.190;8.596;2022-07-29T03:24:26;4.00;;;2.27;;
1721;SDS011;858;53.190;8.596;2022-07-29T03:26:55;4.07;;;2.60;;
1721;SDS011;858;53.190;8.596;2022-07-29T03:29:22;4.03;;;2.28;;
1721;SDS011;858;53.190;8.596;2022-07-29T03:31:48;6.28;;;2.50;;
1721;SDS011;858;53.190;8.596;2022-07-29T03:34:15;4.85;;;2.33;;
1721;SDS011;858;53.190;8.596;2022-07-29T03:36:41;5.63;;;2.60;;
1721;SDS011;858;53.190;8.596;2022-07-29T03:39:07;4.30;;;2.55;;
1721;SDS011;858;53.190;8.596;2022-07-29T03:41:35;3.80;;;2.40;;
1721;SDS011;858;53.190;8.596;2022-07-29T03:44:04;4.45;;;2.78;;
1721;SDS011;858;53.190;8.596;2022-07-29T03:46:31;4.25;;;2.90;;
1721;SDS011;858;53.190;8.596;2022-07-29T03:48:59;3.38;;;2.45;;
1721;SDS011;858;53.190;8.596;2022-07-29T03:51:28;5.20;;;2.60;;
1721;SDS011;858;53.190;8.596;2022-07-29T03:53:54;3.83;;;2.30;;
1721;SDS011;858;53.190;8.596;2022-07-29T03:56:21;6.90;;;2.63;;
1721;SDS011;858;53.190;8.596;2022-07-29T03:58:48;5.78;;;2.90;;
1721;SDS011;858;53.190;8.596;2022-07-29T04:01:16;3.22;;;2.60;;
1721;SDS011;858;53.190;8.596;2022-07-29T04:03:43;5.70;;;2.60;;
1721;SDS011;858;53.190;8.596;2022-07-29T04:06:11;6.03;;;2.30;;
1721;SDS011;858;53.190;8.596;2022-07-29T04:08:38;6.60;;;3.20;;
1721;SDS011;858;53.190;8.596;2022-07-29T04:11:04;4.40;;;2.40;;
1721;SDS011;858;53.190;8.596;2022-07-29T04:13:32;6.65;;;2.97;;
1721;SDS011;858;53.190;8.596;2022-07-29T04:15:59;5.63;;;2.67;;
1721;SDS011;858;53.190;8.596;2022-07-29T04:18:27;5.70;;;2.65;;
1721;SDS011;858;53.190;8.596;2022-07-29T04:20:53;3.30;;;2.40;;
1721;SDS011;858;53.190;8.596;2022-07-29T04:23:20;4.65;;;2.50;;
1721;SDS011;858;53.190;8.596;2022-07-29T04:25:46;6.57;;;3.30;;
1721;SDS011;858;53.190;8.596;2022-07-29T04:28:13;4.03;;;2.70;;
1721;SDS011;858;53.190;8.596;2022-07-29T04:30:40;6.38;;;2.80;;
1721;SDS011;858;53.190;8.596;2022-07-29T04:33:07;6.43;;;2.88;;
1721;SDS011;858;53.190;8.596;2022-07-29T04:35:35;4.78;;;3.15;;
1721;SDS011;858;53.190;8.596;2022-07-29T04:38:02;4.93;;;2.45;;
1721;SDS011;858;53.190;8.596;2022-07-29T04:40:29;7.35;;;2.60;;
1721;SDS011;858;53.190;8.596;2022-07-29T04:42:55;3.65;;;2.58;;
1721;SDS011;858;53.190;8.596;2022-07-29T04:45:22;5.93;;;3.00;;
1721;SDS011;858;53.190;8.596;2022-07-29T04:47:48;3.55;;;2.40;;
1721;SDS011;858;53.190;8.596;2022-07-29T04:50:15;6.05;;;3.45;;
1721;SDS011;858;53.190;8.596;2022-07-29T04:52:42;3.42;;;2.55;;
1721;SDS011;858;53.190;8.596;2022-07-29T04:55:09;4.20;;;2.90;;
1721;SDS011;858;53.190;8.596;2022-07-29T04:57:36;5.97;;;3.17;;
1721;SDS011;858;53.190;8.596;2022-07-29T05:00:02;5.40;;;3.13;;
1721;SDS011;858;53.190;8.596;2022-07-29T05:02:29;4.32;;;2.83;;
1721;SDS011;858;53.190;8.596;2022-07-29T05:04:55;6.68;;;2.85;;
1721;SDS011;858;53.190;8.596;2022-07-29T05:07:22;6.53;;;2.90;;
1721;SDS011;858;53.190;8.596;2022-07-29T05:09:50;6.18;;;2.88;;
1721;SDS011;858;53.190;8.596;2022-07-29T05:12:16;8.83;;;3.10;;
1721;SDS011;858;53.190;8.596;2022-07-29T05:14:42;6.38;;;3.03;;
1721;SDS011;858;53.190;8.596;2022-07-29T05:17:08;7.30;;;3.13;;
1721;SDS011;858;53.190;8.596;2022-07-29T05:19:35;5.30;;;3.40;;
1721;SDS011;858;53.190;8.596;2022-07-29T05:22:01;4.80;;;2.70;;
1721;SDS011;858;53.190;8.596;2022-07-29T05:24:29;4.95;;;3.20;;
1721;SDS011;858;53.190;8.596;2022-07-29T05:26:57;6.10;;;3.35;;
1721;SDS011;858;53.190;8.596;2022-07-29T05:29:24;5.88;;;2.97;;
1721;SDS011;858;53.190;8.596;2022-07-29T05:31:51;3.97;;;2.90;;
1721;SDS011;858;53.190;8.596;2022-07-29T05:34:19;8.40;;;3.40;;
1721;SDS011;858;53.190;8.596;2022-07-29T05:36:45;4.82;;;3.35;;
1721;SDS011;858;53.190;8.596;2022-07-29T05:39:12;6.85;;;3.90;;
1721;SDS011;858;53.190;8.596;2022-07-29T05:41:40;5.03;;;3.22;;
1721;SDS011;858;53.190;8.596;2022-07-29T05:44:08;4.22;;;3.20;;
1721;SDS011;858;53.190;8.596;2022-07-29T05:46:34;4.45;;;3.25;;
1721;SDS011;858;53.190;8.596;2022-07-29T05:49:01;6.28;;;3.10;;
1721;SDS011;858;53.190;8.596;2022-07-29T05:51:28;8.20;;;3.50;;
1721;SDS011;858;53.190;8.596;2022-07-29T05:53:55;6.13;;;3.50;;
1721;SDS011;858;53.190;8.596;2022-07-29T05:56:22;8.07;;;3.80;;
1721;SDS011;858;53.190;8.596;2022-07-29T05:58:48;6.63;;;3.17;;
1721;SDS011;858;53.190;8.596;2022-07-29T06:01:16;4.57;;;3.05;;
1721;SDS011;858;53.190;8.596;2022-07-29T06:03:42;7.47;;;3.90;;
1721;SDS011;858;53.190;8.596;2022-07-29T06:06:08;6.47;;;3.30;;
1721;SDS011;858;53.190;8.596;2022-07-29T06:08:35;5.27;;;3.23;;
1721;SDS011;858;53.190;8.596;2022-07-29T06:11:02;6.43;;;3.47;;
1721;SDS011;858;53.190;8.596;2022-07-29T06:13:28;5.25;;;3.40;;
1721;SDS011;858;53.190;8.596;2022-07-29T06:15:55;5.10;;;3.10;;
1721;SDS011;858;53.190;8.596;2022-07-29T06:18:23;4.25;;;3.47;;
1721;SDS011;858;53.190;8.596;2022-07-29T06:20:49;5.40;;;3.20;;
1721;SDS011;858;53.190;8.596;2022-07-29T06:23:16;6.80;;;3.70;;
1721;SDS011;858;53.190;8.596;2022-07-29T06:25:44;6.80;;;3.50;;
1721;SDS011;858;53.190;8.596;2022-07-29T06:28:10;5.70;;;3.15;;
1721;SDS011;858;53.190;8.596;2022-07-29T06:30:37;6.55;;;3.90;;
1721;SDS011;858;53.190;8.596;2022-07-29T06:33:04;8.65;;;3.80;;
1721;SDS011;858;53.190;8.596;2022-07-29T06:35:32;6.45;;;3.40;;
1721;SDS011;858;53.190;8.596;2022-07-29T06:37:58;5.13;;;3.28;;
1721;SDS011;858;53.190;8.596;2022-07-29T06:40:25;5.43;;;3.45;;
1721;SDS011;858;53.190;8.596;2022-07-29T06:43:09;3.80;;;3.20;;
1721;SDS011;858;53.190;8.596;2022-07-29T06:45:36;5.20;;;3.53;;
1721;SDS011;858;53.190;8.596;2022-07-29T06:48:05;4.65;;;3.30;;
1721;SDS011;858;53.190;8.596;2022-07-29T06:50:33;5.45;;;3.63;;
1721;SDS011;858;53.190;8.596;2022-07-29T06:53:01;5.38;;;3.85;;
1721;SDS011;858;53.190;8.596;2022-07-29T06:55:27;11.50;;;3.80;;
1721;SDS011;858;53.190;8.596;2022-07-29T06:57:54;7.30;;;3.40;;
1721;SDS011;858;53.190;8.596;2022-07-29T07:00:20;5.67;;;3.90;;
1721;SDS011;858;53.190;8.596;2022-07-29T07:02:47;5.82;;;3.20;;
1721;SDS011;858;53.190;8.596;2022-07-29T07:05:13;6.85;;;3.83;;
1721;SDS011;858;53.190;8.596;2022-07-29T07:07:41;5.50;;;4.03;;
1721;SDS011;858;53.190;8.596;2022-07-29T07:10:08;5.20;;;3.87;;
1721;SDS011;858;53.190;8.596;2022-07-29T07:12:34;5.35;;;3.22;;
1721;SDS011;858;53.190;8.596;2022-07-29T07:15:01;3.40;;;3.10;;
1721;SDS011;858;53.190;8.596;2022-07-29T07:17:28;4.40;;;3.17;;
1721;SDS011;858;53.190;8.596;2022-07-29T07:19:54;5.70;;;3.33;;
1721;SDS011;858;53.190;8.596;2022-07-29T07:22:21;6.07;;;3.60;;
1721;SDS011;858;53.190;8.596;2022-07-29T07:24:48;6.25;;;3.30;;
1721;SDS011;858;53.190;8.596;2022-07-29T07:27:15;5.30;;;3.40;;
1721;SDS011;858;53.190;8.596;2022-07-29T07:29:42;5.50;;;3.70;;
1721;SDS011;858;53.190;8.596;2022-07-29T07:32:08;6.00;;;3.75;;
1721;SDS011;858;53.190;8.596;2022-07-29T07:34:34;5.45;;;3.40;;
1721;SDS011;858;53.190;8.596;2022-07-29T07:37:02;6.57;;;3.50;;
1721;SDS011;858;53.190;8.596;2022-07-29T07:39:29;5.63;;;3.20;;
1721;SDS011;858;53.190;8.596;2022-07-29T07:41:57;5.25;;;3.83;;
1721;SDS011;858;53.190;8.596;2022-07-29T07:44:24;5.10;;;3.35;;
1721;SDS011;858;53.190;8.596;2022-07-29T07:46:50;5.47;;;3.40;;
1721;SDS011;858;53.190;8.596;2022-07-29T07:49:16;4.03;;;3.10;;
1721;SDS011;858;53.190;8.596;2022-07-29T07:51:43;6.85;;;3.70;;
1721;SDS011;858;53.190;8.596;2022-07-29T07:54:10;6.55;;;3.35;;
1721;SDS011;858;53.190;8.596;2022-07-29T07:56:36;7.38;;;3.90;;
1721;SDS011;858;53.190;8.596;2022-07-29T07:59:04;7.43;;;3.70;;
1721;SDS011;858;53.190;8.596;2022-07-29T08:01:30;4.68;;;3.50;;
1721;SDS011;858;53.190;8.596;2022-07-29T08:03:57;8.95;;;3.92;;
1721;SDS011;858;53.190;8.596;2022-07-29T08:06:23;5.38;;;3.10;;
1721;SDS011;858;53.190;8.596;2022-07-29T08:08:50;5.75;;;3.70;;
1721;SDS011;858;53.190;8.596;2022-07-29T08:11:17;7.07;;;3.72;;
1721;SDS011;858;53.190;8.596;2022-07-29T08:13:44;7.25;;;3.58;;
1721;SDS011;858;53.190;8.596;2022-07-29T08:16:13;5.47;;;3.40;;
1721;SDS011;858;53.190;8.596;2022-07-29T08:18:40;5.43;;;3.60;;
1721;SDS011;858;53.190;8.596;2022-07-29T08:21:07;5.05;;;3.30;;
1721;SDS011;858;53.190;8.596;2022-07-29T08:23:34;7.72;;;3.50;;
1721;SDS011;858;53.190;8.596;2022-07-29T08:26:03;5.30;;;3.53;;
1721;SDS011;858;53.190;8.596;2022-07-29T08:28:29;7.05;;;3.67;;
1721;SDS011;858;53.190;8.596;2022-07-29T08:30:56;4.05;;;3.50;;
1721;SDS011;858;53.190;8.596;2022-07-29T08:33:24;7.30;;;3.93;;
1721;SDS011;858;53.190;8.596;2022-07-29T08:35:50;4.97;;;3.20;;
1721;SDS011;858;53.190;8.596;2022-07-29T08:38:16;4.60;;;3.25;;
1721;SDS011;858;53.190;8.596;2022-07-29T08:40:43;5.63;;;3.40;;
1721;SDS011;858;53.190;8.596;2022-07-29T08:43:10;6.78;;;3.10;;
1721;SDS011;858;53.190;8.596;2022-07-29T08:45:41;5.10;;;3.15;;
1721;SDS011;858;53.190;8.596;2022-07-29T08:48:16;5.70;;;3.70;;
1721;SDS011;858;53.190;8.596;2022-07-29T08:50:44;4.85;;;3.00;;
1721;SDS011;858;53.190;8.596;2022-07-29T08:53:12;5.30;;;3.00;;
1721;SDS011;858;53.190;8.596;2022-07-29T08:55:39;7.10;;;3.60;;
1721;SDS011;858;53.190;8.596;2022-07-29T08:58:06;4.75;;;2.83;;
1721;SDS011;858;53.190;8.596;2022-07-29T09:00:33;5.27;;;3.40;;
1721;SDS011;858;53.190;8.596;2022-07-29T09:03:01;8.37;;;3.43;;
1721;SDS011;858;53.190;8.596;2022-07-29T09:05:28;5.25;;;3.55;;
1721;SDS011;858;53.190;8.596;2022-07-29T09:07:56;5.05;;;2.78;;
1721;SDS011;858;53.190;8.596;2022-07-29T09:10:22;7.10;;;3.15;;
1721;SDS011;858;53.190;8.596;2022-07-29T09:12:49;5.07;;;2.95;;
1721;SDS011;858;53.190;8.596;2022-07-29T09:15:15;6.03;;;2.80;;
1721;SDS011;858;53.190;8.596;2022-07-29T09:17:45;5.85;;;2.90;;
1721;SDS011;858;53.190;8.596;2022-07-29T09:20:13;4.70;;;2.90;;
1721;SDS011;858;53.190;8.596;2022-07-29T09:22:39;6.55;;;3.05;;
1721;SDS011;858;53.190;8.596;2022-07-29T09:25:10;6.32;;;2.60;;
1721;SDS011;858;53.190;8.596;2022-07-29T09:27:37;3.13;;;2.70;;
1721;SDS011;858;53.190;8.596;2022-07-29T09:30:05;6.00;;;2.80;;
1721;SDS011;858;53.190;8.596;2022-07-29T09:32:32;3.88;;;2.90;;
1721;SDS011;858;53.190;8.596;2022-07-29T09:35:14;3.33;;;2.40;;
1721;SDS011;858;53.190;8.596;2022-07-29T09:37:41;5.10;;;3.03;;
1721;SDS011;858;53.190;8.596;2022-07-29T09:40:13;4.18;;;2.80;;
1721;SDS011;858;53.190;8.596;2022-07-29T09:42:40;4.13;;;3.10;;
1721;SDS011;858;53.190;8.596;2022-07-29T09:45:09;4.45;;;2.92;;
1721;SDS011;858;53.190;8.596;2022-07-29T09:47:43;5.95;;;3.40;;
1721;SDS011;858;53.190;8.596;2022-07-29T09:50:12;3.47;;;2.80;;
1721;SDS011;858;53.190;8.596;2022-07-29T09:52:45;3.70;;;2.80;;
1721;SDS011;858;53.190;8.596;2022-07-29T09:55:14;5.30;;;2.70;;
1721;SDS011;858;53.190;8.596;2022-07-29T09:57:46;2.83;;;2.50;;
1721;SDS011;858;53.190;8.596;2022-07-29T10:00:15;5.43;;;2.80;;
1721;SDS011;858;53.190;8.596;2022-07-29T10:02:43;4.78;;;2.50;;
1721;SDS011;858;53.190;8.596;2022-07-29T10:05:16;3.70;;;2.50;;
1721;SDS011;858;53.190;8.596;2022-07-29T10:07:44;4.97;;;3.08;;
1721;SDS011;858;53.190;8.596;2022-07-29T10:10:19;5.82;;;2.30;;
1721;SDS011;858;53.190;8.596;2022-07-29T10:12:49;3.70;;;2.50;;
1721;SDS011;858;53.190;8.596;2022-07-29T10:15:16;4.10;;;2.60;;
1721;SDS011;858;53.190;8.596;2022-07-29T10:17:52;4.68;;;2.50;;
1721;SDS011;858;53.190;8.596;2022-07-29T10:20:19;6.53;;;2.60;;
1721;SDS011;858;53.190;8.596;2022-07-29T10:22:48;4.28;;;2.60;;
1721;SDS011;858;53.190;8.596;2022-07-29T10:25:16;6.18;;;2.95;;
1721;SDS011;858;53.190;8.596;2022-07-29T10:27:44;3.85;;;2.80;;
1721;SDS011;858;53.190;8.596;2022-07-29T10:30:13;5.22;;;2.90;;
1721;SDS011;858;53.190;8.596;2022-07-29T10:32:49;4.97;;;2.60;;
1721;SDS011;858;53.190;8.596;2022-07-29T10:38:04;4.75;;;2.80;;
1721;SDS011;858;53.190;8.596;2022-07-29T10:40:36;5.95;;;3.00;;
1721;SDS011;858;53.190;8.596;2022-07-29T10:43:26;4.88;;;2.40;;
1721;SDS011;858;53.190;8.596;2022-07-29T10:46:01;5.03;;;3.03;;
1721;SDS011;858;53.190;8.596;2022-07-29T10:48:27;3.78;;;2.40;;
1721;SDS011;858;53.190;8.596;2022-07-29T10:50:55;5.78;;;2.30;;
1721;SDS011;858;53.190;8.596;2022-07-29T10:53:25;4.15;;;2.47;;
1721;SDS011;858;53.190;8.596;2022-07-29T10:56:22;6.10;;;2.60;;
1721;SDS011;858;53.190;8.596;2022-07-29T11:01:33;3.40;;;2.70;;
1721;SDS011;858;53.190;8.596;2022-07-29T11:04:00;6.20;;;2.40;;
1721;SDS011;858;53.190;8.596;2022-07-29T11:06:28;3.70;;;2.50;;
1721;SDS011;858;53.190;8.596;2022-07-29T11:09:14;6.53;;;2.47;;
1721;SDS011;858;53.190;8.596;2022-07-29T11:11:41;5.23;;;2.60;;
1721;SDS011;858;53.190;8.596;2022-07-29T11:14:07;5.73;;;2.40;;
1721;SDS011;858;53.190;8.596;2022-07-29T11:19:20;5.22;;;2.60;;
1721;SDS011;858;53.190;8.596;2022-07-29T11:21:47;5.72;;;2.92;;
1721;SDS011;858;53.190;8.596;2022-07-29T11:24:15;5.30;;;2.80;;
1721;SDS011;858;53.190;8.596;2022-07-29T11:26:42;3.72;;;2.42;;
1721;SDS011;858;53.190;8.596;2022-07-29T11:29:16;5.40;;;2.50;;
1721;SDS011;858;53.190;8.596;2022-07-29T11:31:43;6.10;;;2.50;;
1721;SDS011;858;53.190;8.596;2022-07-29T11:34:22;4.50;;;2.37;;
1721;SDS011;858;53.190;8.596;2022-07-29T11:39:36;4.28;;;2.40;;
1721;SDS011;858;53.190;8.596;2022-07-29T11:44:53;5.20;;;2.47;;
1721;SDS011;858;53.190;8.596;2022-07-29T11:47:21;4.85;;;2.28;;
1721;SDS011;858;53.190;8.596;2022-07-29T11:49:48;5.83;;;2.50;;
1721;SDS011;858;53.190;8.596;2022-07-29T11:52:16;3.90;;;2.50;;
1721;SDS011;858;53.190;8.596;2022-07-29T11:54:42;4.82;;;2.58;;
1721;SDS011;858;53.190;8.596;2022-07-29T11:57:09;4.00;;;2.20;;
1721;SDS011;858;53.190;8.596;2022-07-29T11:59:38;3.50;;;2.30;;
1721;SDS011;858;53.190;8.596;2022-07-29T12:02:06;4.75;;;2.45;;
1721;SDS011;858;53.190;8.596;2022-07-29T12:04:33;4.15;;;2.80;;
1721;SDS011;858;53.190;8.596;2022-07-29T12:07:01;4.70;;;2.60;;
1721;SDS011;858;53.190;8.596;2022-07-29T12:09:27;4.50;;;2.40;;
1721;SDS011;858;53.190;8.596;2022-07-29T12:11:56;3.80;;;2.40;;
1721;SDS011;858;53.190;8.596;2022-07-29T12:14:26;4.50;;;2.28;;
1721;SDS011;858;53.190;8.596;2022-07-29T12:16:52;4.32;;;2.40;;
1721;SDS011;858;53.190;8.596;2022-07-29T12:19:18;4.65;;;2.40;;
1721;SDS011;858;53.190;8.596;2022-07-29T12:21:45;3.97;;;2.70;;
1721;SDS011;858;53.190;8.596;2022-07-29T12:24:14;5.03;;;2.45;;
1721;SDS011;858;53.190;8.596;2022-07-29T12:26:49;3.47;;;2.45;;
1721;SDS011;858;53.190;8.596;2022-07-29T12:29:16;3.70;;;2.30;;
1721;SDS011;858;53.190;8.596;2022-07-29T12:31:44;4.38;;;2.35;;
1721;SDS011;858;53.190;8.596;2022-07-29T12:34:11;7.72;;;2.70;;
1721;SDS011;858;53.190;8.596;2022-07-29T12:36:38;6.82;;;2.50;;
1721;SDS011;858;53.190;8.596;2022-07-29T12:39:04;4.78;;;2.10;;
1721;SDS011;858;53.190;8.596;2022-07-29T12:41:32;4.07;;;2.40;;
1721;SDS011;858;53.190;8.596;2022-07-29T12:43:59;4.65;;;2.00;;
1721;SDS011;858;53.190;8.596;2022-07-29T12:46:26;3.53;;;2.10;;
1721;SDS011;858;53.190;8.596;2022-07-29T12:48:53;4.63;;;2.40;;
1721;SDS011;858;53.190;8.596;2022-07-29T12:51:27;7.20;;;2.25;;
1721;SDS011;858;53.190;8.596;2022-07-29T12:54:01;4.45;;;2.00;;
1721;SDS011;858;53.190;8.596;2022-07-29T12:56:28;4.60;;;2.20;;
1721;SDS011;858;53.190;8.596;2022-07-29T12:58:56;3.63;;;1.92;;
1721;SDS011;858;53.190;8.596;2022-07-29T13:01:22;3.70;;;2.33;;
1721;SDS011;858;53.190;8.596;2022-07-29T13:03:50;4.63;;;2.50;;
1721;SDS011;858;53.190;8.596;2022-07-29T13:06:28;3.25;;;1.70;;
1721;SDS011;858;53.190;8.596;2022-07-29T13:09:04;6.70;;;2.30;;
1721;SDS011;858;53.190;8.596;2022-07-29T13:11:32;4.90;;;2.20;;
1721;SDS011;858;53.190;8.596;2022-07-29T13:14:00;3.90;;;1.90;;
1721;SDS011;858;53.190;8.596;2022-07-29T13:16:26;4.82;;;2.40;;
1721;SDS011;858;53.190;8.596;2022-07-29T13:19:03;3.00;;;2.40;;
1721;SDS011;858;53.190;8.596;2022-07-29T13:21:29;5.00;;;2.30;;
1721;SDS011;858;53.190;8.596;2022-07-29T13:23:56;4.17;;;1.93;;
1721;SDS011;858;53.190;8.596;2022-07-29T13:26:22;7.00;;;2.67;;
1721;SDS011;858;53.190;8.596;2022-07-29T13:28:48;4.63;;;2.40;;
1721;SDS011;858;53.190;8.596;2022-07-29T13:31:16;4.45;;;2.40;;
1721;SDS011;858;53.190;8.596;2022-07-29T13:33:43;4.35;;;2.20;;
1721;SDS011;858;53.190;8.596;2022-07-29T13:36:09;6.32;;;2.50;;
1721;SDS011;858;53.190;8.596;2022-07-29T13:38:35;6.53;;;2.55;;
1721;SDS011;858;53.190;8.596;2022-07-29T13:41:02;7.00;;;2.00;;
1721;SDS011;858;53.190;8.596;2022-07-29T13:43:28;4.90;;;2.30;;
1721;SDS011;858;53.190;8.596;2022-07-29T13:45:56;3.85;;;2.40;;
1721;SDS011;858;53.190;8.596;2022-07-29T13:48:24;2.65;;;1.90;;
1721;SDS011;858;53.190;8.596;2022-07-29T13:50:50;4.67;;;2.20;;
1721;SDS011;858;53.190;8.596;2022-07-29T13:53:17;6.40;;;2.40;;
1721;SDS011;858;53.190;8.596;2022-07-29T13:55:43;4.88;;;2.60;;
1721;SDS011;858;53.190;8.596;2022-07-29T13:58:09;5.20;;;2.30;;
1721;SDS011;858;53.190;8.596;2022-07-29T14:00:36;7.63;;;2.50;;
1721;SDS011;858;53.190;8.596;2022-07-29T14:03:04;4.82;;;2.15;;
1721;SDS011;858;53.190;8.596;2022-07-29T14:05:32;2.80;;;2.05;;
1721;SDS011;858;53.190;8.596;2022-07-29T14:07:59;3.53;;;2.10;;
1721;SDS011;858;53.190;8.596;2022-07-29T14:10:25;3.67;;;2.40;;
1721;SDS011;858;53.190;8.596;2022-07-29T14:12:52;4.20;;;2.10;;
1721;SDS011;858;53.190;8.596;2022-07-29T14:15:19;5.50;;;2.38;;
1721;SDS011;858;53.190;8.596;2022-07-29T14:17:46;4.20;;;2.17;;
1721;SDS011;858;53.190;8.596;2022-07-29T14:20:12;6.10;;;2.17;;
1721;SDS011;858;53.190;8.596;2022-07-29T14:22:41;2.95;;;2.25;;
1721;SDS011;858;53.190;8.596;2022-07-29T14:25:08;4.30;;;2.30;;
1721;SDS011;858;53.190;8.596;2022-07-29T14:27:34;2.35;;;1.95;;
1721;SDS011;858;53.190;8.596;2022-07-29T14:30:01;4.35;;;2.60;;
1721;SDS011;858;53.190;8.596;2022-07-29T14:32:27;3.80;;;2.20;;
1721;SDS011;858;53.190;8.596;2022-07-29T14:34:54;3.67;;;2.45;;
1721;SDS011;858;53.190;8.596;2022-07-29T14:37:21;3.83;;;2.30;;
1721;SDS011;858;53.190;8.596;2022-07-29T14:39:48;3.40;;;2.20;;
1721;SDS011;858;53.190;8.596;2022-07-29T14:42:15;7.50;;;2.40;;
1721;SDS011;858;53.190;8.596;2022-07-29T14:44:41;6.10;;;1.98;;
1721;SDS011;858;53.190;8.596;2022-07-29T14:47:07;4.45;;;2.35;;
1721;SDS011;858;53.190;8.596;2022-07-29T14:49:34;4.38;;;2.00;;
1721;SDS011;858;53.190;8.596;2022-07-29T14:52:00;4.50;;;2.38;;
1721;SDS011;858;53.190;8.596;2022-07-29T14:54:27;3.80;;;2.20;;
1721;SDS011;858;53.190;8.596;2022-07-29T14:56:55;3.72;;;2.30;;
1721;SDS011;858;53.190;8.596;2022-07-29T14:59:22;4.18;;;2.50;;
1721;SDS011;858;53.190;8.596;2022-07-29T15:01:48;3.83;;;2.03;;
1721;SDS011;858;53.190;8.596;2022-07-29T15:04:14;3.95;;;2.40;;
1721;SDS011;858;53.190;8.596;2022-07-29T15:06:41;3.97;;;2.40;;
1721;SDS011;858;53.190;8.596;2022-07-29T15:09:08;2.97;;;2.47;;
1721;SDS011;858;53.190;8.596;2022-07-29T15:11:35;4.85;;;2.55;;
1721;SDS011;858;53.190;8.596;2022-07-29T15:14:03;4.22;;;2.60;;
1721;SDS011;858;53.190;8.596;2022-07-29T15:16:30;5.57;;;2.45;;
1721;SDS011;858;53.190;8.596;2022-07-29T15:18:56;4.93;;;2.53;;
1721;SDS011;858;53.190;8.596;2022-07-29T15:21:22;5.25;;;2.58;;
1721;SDS011;858;53.190;8.596;2022-07-29T15:23:49;4.85;;;2.50;;
1721;SDS011;858;53.190;8.596;2022-07-29T15:26:17;6.82;;;2.40;;
1721;SDS011;858;53.190;8.596;2022-07-29T15:28:44;4.97;;;2.38;;
1721;SDS011;858;53.190;8.596;2022-07-29T15:31:14;8.40;;;2.63;;
1721;SDS011;858;53.190;8.596;2022-07-29T15:33:40;5.05;;;2.70;;
1721;SDS011;858;53.190;8.596;2022-07-29T15:36:07;6.40;;;2.80;;
1721;SDS011;858;53.190;8.596;2022-07-29T15:38:33;4.27;;;2.37;;
1721;SDS011;858;53.190;8.596;2022-07-29T15:41:00;6.53;;;2.40;;
1721;SDS011;858;53.190;8.596;2022-07-29T15:43:28;5.88;;;2.42;;
1721;SDS011;858;53.190;8.596;2022-07-29T15:45:54;5.10;;;2.70;;
1721;SDS011;858;53.190;8.596;2022-07-29T15:48:45;7.10;;;2.60;;
1721;SDS011;858;53.190;8.596;2022-07-29T15:51:12;6.13;;;2.80;;